Observations for Trim Market St
| Time | AQI | Temp °C | Hum % | Pres Pa | CO μg/m³ | H₂S μg/m³ | NO μg/m³ | NO₂ μg/m³ | O₃ μg/m³ | SO₂ μg/m³ | PM1 μg/m³ | PM2.5 μg/m³ | PM10 μg/m³ |
|---|---|---|---|---|---|---|---|---|---|---|---|---|---|
| Thursday 9 July 2026 | |||||||||||||
| 23:07 | 1 | 22 | 65 | 56,996 | 0 | 0 | 0 | 6.52 | 14.2 | 0 | 1.43 | 3.28 | 4.91 |
| 23:06 | 1 | 22 | 65 | 56,982 | 0 | 0 | 0 | 6.42 | 11.44 | 0 | 2.14 | 3.77 | 6.22 |
| 23:05 | 1 | 22 | 65 | 56,972 | 0 | 0 | 0 | 5.9 | 12.1 | 0 | 1.43 | 3.28 | 6.22 |
| 23:03 | 1 | 22.1 | 65 | 56,946 | 0 | 0 | 0 | 7.07 | 10.51 | 0 | 1.43 | 3.27 | 6.22 |
| 23:01 | 1 | 22.1 | 65 | 56,957 | 0 | 1 | 0 | 10.68 | 18.9 | 0 | 1.43 | 3.28 | 4.91 |
| 23:00 | 1 | 22.2 | 65 | 56,985 | 0 | 1.02 | 0 | 10.67 | 14.88 | 0 | 0.71 | 2.3 | 4.25 |
| 22:59 | 1 | 22.2 | 65 | 57,017 | 0 | 0 | 0 | 12.88 | 10.79 | 0 | 0.71 | 2.3 | 3.59 |
| 22:58 | 1 | 22.2 | 65 | 57,054 | 0 | 0 | 0 | 11.4 | 10.55 | 0 | 1.43 | 3.29 | 5.56 |
| 22:54 | 1 | 22.3 | 65 | 57,119 | 0 | 0 | 0 | 6.89 | 12.75 | 0 | 1.43 | 2.81 | 4.24 |
| 22:48 | 1 | 22.4 | 64 | 57,269 | 0 | 0 | 0 | 9.73 | 14.91 | 0 | 0.71 | 2.34 | 3.56 |
| 22:46 | 1 | 22.5 | 64 | 57,324 | 0 | 0 | 0 | 9.84 | 12.49 | 0 | 1.43 | 2.85 | 4.21 |
| 22:45 | 1 | 22.5 | 64 | 57,351 | 0 | 0.19 | 0 | 12.85 | 13.1 | 0 | 1.43 | 2.86 | 4.21 |
| 22:40 | 1 | 22.7 | 63 | 57,429 | 0 | 0 | 0 | 8.84 | 12.12 | 0 | 1.43 | 3.37 | 4.86 |
| 22:39 | 1 | 22.7 | 63 | 57,438 | 0 | 0 | 0 | 10.45 | 10.75 | 0 | 1.43 | 2.88 | 4.19 |
| 22:38 | 1 | 22.7 | 63 | 57,453 | 0 | 0 | 0 | 8.95 | 11.57 | 0 | 0.71 | 2.38 | 3.53 |
| 22:37 | 1 | 22.7 | 63 | 57,465 | 0 | 0 | 0 | 9.97 | 13.15 | 0 | 0.71 | 2.39 | 3.52 |
| 22:36 | 1 | 22.8 | 63 | 57,483 | 0 | 0 | 0 | 11.15 | 9.66 | 0 | 1.43 | 2.39 | 3.52 |
| 22:35 | 1 | 22.8 | 63 | 57,500 | 0 | 0 | 0 | 9.66 | 12.1 | 0 | 0.71 | 1.9 | 2.85 |
| 22:34 | 1 | 22.8 | 63 | 57,514 | 0 | 0 | 0 | 8.57 | 14.12 | 0 | 0.71 | 2.4 | 3.51 |
| 22:33 | 1 | 22.9 | 63 | 57,529 | 0 | 0.61 | 0 | 11.16 | 14.44 | 0 | 0.71 | 2.9 | 4.18 |